createdAt,value
2018-05-03T00:00:29.523Z,3.27
2018-05-03T00:02:57.350Z,2.90
2018-05-03T00:05:24.956Z,3.00
2018-05-03T00:07:52.578Z,3.47
2018-05-03T00:10:20.202Z,3.57
2018-05-03T00:12:47.790Z,4.07
2018-05-03T00:15:15.527Z,3.07
2018-05-03T00:17:43.122Z,2.80
2018-05-03T00:20:10.715Z,3.80
2018-05-03T00:22:38.328Z,3.20
2018-05-03T00:25:05.914Z,3.20
2018-05-03T00:27:33.558Z,3.77
2018-05-03T00:30:01.162Z,4.00
2018-05-03T00:32:28.768Z,4.10
2018-05-03T00:34:56.378Z,3.60
2018-05-03T00:37:23.970Z,3.80
2018-05-03T00:39:51.833Z,3.83
2018-05-03T00:42:19.422Z,3.70
2018-05-03T00:44:47.013Z,4.30
2018-05-03T00:47:14.639Z,4.20
2018-05-03T00:49:42.265Z,3.60
2018-05-03T00:52:10.056Z,4.13
2018-05-03T00:54:48.665Z,3.50
2018-05-03T00:57:16.372Z,3.80
2018-05-03T00:59:43.980Z,3.50
2018-05-03T01:02:11.723Z,3.90
2018-05-03T01:04:39.356Z,3.50
2018-05-03T01:07:06.970Z,4.20
2018-05-03T01:09:35.391Z,3.60
2018-05-03T01:12:02.988Z,4.20
2018-05-03T01:14:30.583Z,4.90
2018-05-03T01:16:58.201Z,4.37
2018-05-03T01:19:25.802Z,4.37
2018-05-03T01:21:53.462Z,4.00
2018-05-03T01:24:21.047Z,3.97
2018-05-03T01:26:48.670Z,3.90
2018-05-03T01:29:16.298Z,5.00
2018-05-03T01:31:43.890Z,3.93
2018-05-03T01:34:11.883Z,4.10
2018-05-03T01:36:39.478Z,4.40
2018-05-03T01:39:07.091Z,4.07
2018-05-03T01:41:34.778Z,5.03
2018-05-03T01:44:02.389Z,5.20
2018-05-03T01:46:30.003Z,4.67
2018-05-03T01:48:57.628Z,4.77
2018-05-03T01:51:25.228Z,5.23
2018-05-03T01:53:52.871Z,4.43
2018-05-03T01:56:20.481Z,5.33
2018-05-03T01:58:48.073Z,4.60
2018-05-03T02:01:15.865Z,3.97
2018-05-03T02:03:43.475Z,4.50
2018-05-03T02:06:11.070Z,4.17
2018-05-03T02:08:38.682Z,4.30
2018-05-03T02:11:06.293Z,5.13
2018-05-03T02:13:34.174Z,4.97
2018-05-03T02:16:01.786Z,4.77
2018-05-03T03:44:15.530Z,5.03
2018-05-03T03:46:43.156Z,5.27
2018-05-03T03:49:10.903Z,5.90
2018-05-03T03:51:38.500Z,5.83
2018-05-03T03:54:06.091Z,5.80
2018-05-03T03:56:33.793Z,4.70
2018-05-03T03:59:01.494Z,5.53
2018-05-03T04:01:29.310Z,5.37
2018-05-03T04:03:56.906Z,5.27
2018-05-03T04:06:24.506Z,6.30
2018-05-03T04:08:52.134Z,5.70
2018-05-03T04:11:19.726Z,5.50
2018-05-03T04:13:47.529Z,5.43
2018-05-03T04:16:15.133Z,5.13
2018-05-03T04:18:54.926Z,5.70
2018-05-03T04:21:34.345Z,5.27
2018-05-03T04:24:13.749Z,4.80
2018-05-03T04:26:41.370Z,4.87
2018-05-03T04:29:09.143Z,5.90
2018-05-03T04:31:36.740Z,6.47
2018-05-03T04:34:04.358Z,5.80
2018-05-03T04:36:31.998Z,6.03
2018-05-03T04:38:59.627Z,6.50
2018-05-03T04:41:27.247Z,5.50
2018-05-03T04:43:54.871Z,5.63
2018-05-03T04:46:22.472Z,5.27
2018-05-03T04:48:50.095Z,5.90
2018-05-03T04:51:17.684Z,5.77
2018-05-03T04:53:45.285Z,5.47
2018-05-03T04:56:13.111Z,5.23
2018-05-03T04:58:40.712Z,5.83
2018-05-03T05:01:08.340Z,6.97
2018-05-03T05:03:36.018Z,5.33
2018-05-03T05:06:03.629Z,6.20
2018-05-03T05:08:31.227Z,5.87
2018-05-03T05:10:59.200Z,5.77
2018-05-03T05:13:26.810Z,5.40
2018-05-03T05:15:54.470Z,6.70
2018-05-03T05:18:22.070Z,6.40
2018-05-03T05:20:49.666Z,6.90
2018-05-03T05:23:17.282Z,5.40
2018-05-03T05:25:44.878Z,5.13
2018-05-03T05:28:12.771Z,7.10
2018-05-03T05:30:40.410Z,5.70
2018-05-03T05:33:08.025Z,5.70
2018-05-03T05:35:35.809Z,6.00
2018-05-03T05:38:03.419Z,6.00
2018-05-03T05:40:31.263Z,6.40
2018-05-03T05:42:58.891Z,7.40
2018-05-03T05:45:26.500Z,5.63
2018-05-03T05:47:54.295Z,11.90
2018-05-03T05:50:21.904Z,7.50
2018-05-03T05:52:49.561Z,5.70
2018-05-03T05:55:17.245Z,5.50
2018-05-03T05:57:44.855Z,5.13
2018-05-03T06:00:12.511Z,7.20
2018-05-03T06:02:40.116Z,6.20
2018-05-03T06:05:07.866Z,8.77
2018-05-03T06:07:35.460Z,5.40
2018-05-03T06:10:03.059Z,6.40
2018-05-03T06:12:30.682Z,5.70
2018-05-03T06:14:58.278Z,6.27
2018-05-03T06:17:25.987Z,5.67
2018-05-03T06:19:53.586Z,5.67
2018-05-03T06:22:21.183Z,6.10
2018-05-03T06:24:48.804Z,5.40
2018-05-03T06:27:16.411Z,5.57
2018-05-03T06:29:44.213Z,6.43
2018-05-03T06:32:11.810Z,6.80
2018-05-03T06:34:39.403Z,5.53
2018-05-03T06:37:07.026Z,7.43
2018-05-03T06:39:34.632Z,4.83
2018-05-03T06:42:02.516Z,7.83
2018-05-03T06:44:30.119Z,9.63
2018-05-03T06:46:57.712Z,6.63
2018-05-03T06:49:25.632Z,6.77
2018-05-03T06:51:53.234Z,7.50
2018-05-03T06:54:21.013Z,7.50
2018-05-03T06:56:48.616Z,6.33
2018-05-03T06:59:16.202Z,9.97
2018-05-03T07:01:43.821Z,8.40
2018-05-03T07:04:11.467Z,6.50
2018-05-03T07:06:39.578Z,5.87
2018-05-03T07:09:07.163Z,5.73
2018-05-03T07:11:34.771Z,5.40
2018-05-03T07:14:02.385Z,5.23
2018-05-03T07:16:29.982Z,5.30
2018-05-03T07:18:57.613Z,4.67
2018-05-03T07:21:25.217Z,6.40
2018-05-03T07:23:52.893Z,4.80
2018-05-03T07:26:20.478Z,5.70
2018-05-03T07:28:48.202Z,5.63
2018-05-03T07:31:16.055Z,5.00
2018-05-03T07:33:43.650Z,5.30
2018-05-03T07:36:11.289Z,5.00
2018-05-03T07:38:38.915Z,5.20
2018-05-03T07:41:06.521Z,5.33
2018-05-03T07:43:34.278Z,6.70
2018-05-03T07:46:01.915Z,5.83
2018-05-03T07:48:29.597Z,4.90
2018-05-03T07:50:58.106Z,5.20
2018-05-03T07:53:31.162Z,4.80
2018-05-03T07:56:00.419Z,4.90
2018-05-03T07:58:30.063Z,4.90
2018-05-03T08:00:58.261Z,5.10
2018-05-03T08:03:25.921Z,4.67
2018-05-03T08:05:53.567Z,4.67
2018-05-03T08:08:21.350Z,4.90
2018-05-03T08:10:49.238Z,4.40
2018-05-03T08:13:16.826Z,6.20
2018-05-03T08:15:44.648Z,4.13
2018-05-03T08:18:12.240Z,4.87
2018-05-03T08:20:40.177Z,4.57
2018-05-03T08:23:07.764Z,5.00
2018-05-03T08:25:35.369Z,5.13
2018-05-03T08:28:02.991Z,5.27
2018-05-03T08:30:30.585Z,4.43
2018-05-03T08:32:58.580Z,4.07
2018-05-03T08:35:26.174Z,4.40
2018-05-03T08:37:53.763Z,4.23
2018-05-03T08:40:21.382Z,4.17
2018-05-03T08:42:48.966Z,4.50
2018-05-03T08:45:16.890Z,4.10
2018-05-03T08:47:44.478Z,4.20
2018-05-03T08:50:12.073Z,4.07
2018-05-03T08:52:39.689Z,5.00
2018-05-03T08:55:07.295Z,4.33
2018-05-03T08:57:34.924Z,5.13
2018-05-03T09:00:02.509Z,4.67
2018-05-03T09:02:30.103Z,4.73
2018-05-03T09:04:57.837Z,4.37
2018-05-03T09:07:25.426Z,4.13
2018-05-03T09:09:53.138Z,4.93
2018-05-03T09:12:20.723Z,3.70
2018-05-03T09:14:48.314Z,4.00
2018-05-03T09:17:15.925Z,5.30
2018-05-03T09:19:43.510Z,3.90
2018-05-03T09:22:11.322Z,3.97
2018-05-03T09:24:39.138Z,3.73
2018-05-03T09:27:06.722Z,3.30
2018-05-03T09:29:34.339Z,3.90
2018-05-03T09:32:01.921Z,4.90
2018-05-03T09:34:29.646Z,4.07
2018-05-03T09:36:57.239Z,4.50
2018-05-03T09:39:24.827Z,4.00
2018-05-03T09:41:52.636Z,4.13
2018-05-03T09:44:20.223Z,4.70
2018-05-03T09:46:47.844Z,4.97
2018-05-03T09:49:15.429Z,4.80
2018-05-03T09:51:43.019Z,4.70
2018-05-03T09:54:10.741Z,4.07
2018-05-03T09:56:38.540Z,4.23
2018-05-03T09:59:06.362Z,3.80
2018-05-03T10:01:33.954Z,4.90
2018-05-03T10:04:01.550Z,4.90
2018-05-03T10:06:29.155Z,4.03
2018-05-03T10:08:58.414Z,4.87
2018-05-03T10:11:26.514Z,5.20
2018-05-03T10:13:54.112Z,4.27
2018-05-03T10:16:21.705Z,4.67
2018-05-03T10:18:49.333Z,5.10
2018-05-03T10:21:16.914Z,5.23
2018-05-03T10:23:44.541Z,5.10
2018-05-03T10:26:12.545Z,4.37
2018-05-03T10:28:40.133Z,4.63
2018-05-03T10:31:07.808Z,4.90
2018-05-03T10:33:35.518Z,4.60
2018-05-03T10:36:03.583Z,4.67
2018-05-03T10:38:32.879Z,5.43
2018-05-03T10:41:00.704Z,5.10
2018-05-03T10:43:29.827Z,4.63
2018-05-03T10:46:11.211Z,5.70
2018-05-03T10:48:52.073Z,5.30
2018-05-03T10:51:32.416Z,5.20
2018-05-03T10:54:11.551Z,4.57
2018-05-03T10:56:53.780Z,5.27
2018-05-03T10:59:23.124Z,4.97
2018-05-03T11:02:07.594Z,5.30
2018-05-03T11:04:46.006Z,4.30
2018-05-03T11:07:16.333Z,6.13
2018-05-03T11:09:58.491Z,4.80
2018-05-03T11:12:39.792Z,6.27
2018-05-03T11:15:18.347Z,4.67
2018-05-03T11:17:55.237Z,6.83
2018-05-03T11:20:38.118Z,5.97
2018-05-03T11:23:13.540Z,5.43
2018-05-03T11:25:49.933Z,5.07
2018-05-03T11:28:25.074Z,4.97
2018-05-03T11:30:53.398Z,4.10
2018-05-03T11:33:21.000Z,5.30
2018-05-03T11:35:48.588Z,4.03
2018-05-03T11:38:16.196Z,4.10
2018-05-03T11:40:43.786Z,4.10
2018-05-03T11:43:11.398Z,4.07
2018-05-03T11:45:38.997Z,4.43
2018-05-03T11:48:06.618Z,4.20
2018-05-03T11:50:34.308Z,3.90
2018-05-03T11:53:01.935Z,3.97
2018-05-03T11:55:29.519Z,4.10
2018-05-03T11:57:57.130Z,3.60
2018-05-03T12:00:24.715Z,4.10
2018-05-03T12:02:52.337Z,3.40
2018-05-03T12:05:19.935Z,3.90
2018-05-03T12:07:47.636Z,3.47
2018-05-03T12:10:15.258Z,4.50
2018-05-03T12:12:42.881Z,4.90
2018-05-03T12:15:10.490Z,5.20
2018-05-03T12:17:38.083Z,4.10
2018-05-03T12:20:05.743Z,4.20
2018-05-03T12:22:33.339Z,4.10
2018-05-03T12:25:00.968Z,4.13
2018-05-03T12:27:28.560Z,3.80
2018-05-03T12:29:56.155Z,3.80
2018-05-03T12:32:23.773Z,3.30
2018-05-03T12:34:51.396Z,3.30
2018-05-03T12:37:19.045Z,3.77
2018-05-03T12:39:46.643Z,3.10
2018-05-03T12:42:14.259Z,2.90
2018-05-03T12:44:41.846Z,3.33
2018-05-03T12:47:09.471Z,4.23
2018-05-03T12:49:37.598Z,3.40
2018-05-03T12:52:05.212Z,3.80
2018-05-03T12:54:32.818Z,4.60
2018-05-03T12:57:00.435Z,4.93
2018-05-03T12:59:28.025Z,4.47
2018-05-03T13:01:55.651Z,4.47
2018-05-03T13:04:23.242Z,3.83
2018-05-03T13:06:50.925Z,3.97
2018-05-03T13:09:18.515Z,3.70
2018-05-03T13:11:46.555Z,3.47
2018-05-03T13:14:14.203Z,3.30
2018-05-03T13:16:41.754Z,3.90
2018-05-03T13:19:09.362Z,3.20
2018-05-03T13:21:37.024Z,4.00
2018-05-03T13:24:04.646Z,3.20
2018-05-03T13:26:32.260Z,3.50
2018-05-03T13:28:59.906Z,3.53
2018-05-03T13:31:27.494Z,3.67
2018-05-03T13:33:55.090Z,3.50
2018-05-03T13:36:22.885Z,3.20
2018-05-03T13:38:50.504Z,4.00
2018-05-03T13:41:18.171Z,3.53
2018-05-03T13:43:45.739Z,3.50
2018-05-03T13:46:13.371Z,3.10
2018-05-03T13:48:40.961Z,3.97
2018-05-03T13:51:08.558Z,3.90
2018-05-03T13:53:36.175Z,3.47
2018-05-03T13:56:03.774Z,3.73
2018-05-03T13:58:31.408Z,3.57
2018-05-03T14:00:59.017Z,3.27
2018-05-03T14:03:26.863Z,3.30
2018-05-03T14:05:54.457Z,3.83
2018-05-03T14:08:22.114Z,3.77
2018-05-03T14:10:49.737Z,3.67
2018-05-03T14:13:17.343Z,3.70
2018-05-03T14:15:44.968Z,3.07
2018-05-03T14:18:12.563Z,3.20
2018-05-03T14:20:40.363Z,2.80
2018-05-03T14:23:07.958Z,4.03
2018-05-03T14:25:35.648Z,3.00
2018-05-03T14:28:04.021Z,3.37
2018-05-03T14:30:31.610Z,3.47
2018-05-03T14:32:59.223Z,3.33
2018-05-03T14:35:26.988Z,3.90
2018-05-03T14:37:54.576Z,3.60
2018-05-03T14:40:22.168Z,3.30
2018-05-03T14:42:49.758Z,3.00
2018-05-03T14:45:18.174Z,3.03
2018-05-03T14:47:45.772Z,3.00
2018-05-03T14:50:13.574Z,2.60
2018-05-03T14:52:41.158Z,2.53
2018-05-03T14:55:09.072Z,3.50
2018-05-03T14:57:36.619Z,3.33
2018-05-03T15:00:04.334Z,3.53
2018-05-03T15:02:31.954Z,3.60
2018-05-03T15:04:59.542Z,3.30
2018-05-03T15:07:29.397Z,3.30
2018-05-03T15:09:56.999Z,4.20
2018-05-03T15:12:24.643Z,3.33
2018-05-03T15:14:52.839Z,3.10
2018-05-03T15:17:20.425Z,2.77
2018-05-03T15:19:48.038Z,4.30
2018-05-03T15:22:15.657Z,3.43
2018-05-03T15:24:43.269Z,3.63
2018-05-03T15:27:10.860Z,3.43
2018-05-03T15:29:38.885Z,3.93
2018-05-03T15:32:06.478Z,3.37
2018-05-03T15:34:34.070Z,3.40
2018-05-03T15:37:01.703Z,4.00
2018-05-03T15:39:29.299Z,3.13
2018-05-03T15:41:56.911Z,3.17
2018-05-03T15:44:24.508Z,4.00
2018-05-03T15:46:52.476Z,3.60
2018-05-03T15:49:20.074Z,3.57
2018-05-03T15:51:47.668Z,3.60
2018-05-03T15:54:15.281Z,3.60
2018-05-03T15:56:42.876Z,3.80
2018-05-03T15:59:10.491Z,3.83
2018-05-03T16:01:38.162Z,3.20
2018-05-03T16:04:05.933Z,3.67
2018-05-03T16:06:33.529Z,3.70
2018-05-03T16:09:01.121Z,2.90
2018-05-03T16:11:28.745Z,3.93
2018-05-03T16:13:56.330Z,4.00
2018-05-03T16:16:23.943Z,4.30
2018-05-03T16:18:51.616Z,4.00
2018-05-03T16:21:19.825Z,3.60
2018-05-03T16:23:47.420Z,4.33
2018-05-03T16:26:15.014Z,5.00
2018-05-03T16:28:42.636Z,4.50
2018-05-03T16:31:10.234Z,5.07
2018-05-03T16:33:37.869Z,5.70
2018-05-03T16:36:05.452Z,4.53
2018-05-03T16:38:33.110Z,4.77
2018-05-03T16:41:00.726Z,4.77
2018-05-03T16:43:28.323Z,4.67
2018-05-03T16:45:55.938Z,4.10
2018-05-03T16:48:23.528Z,4.40
2018-05-03T16:50:51.154Z,4.80
2018-05-03T16:53:18.748Z,5.50
2018-05-03T16:55:46.334Z,4.93
2018-05-03T16:58:13.961Z,5.63
2018-05-03T17:00:41.550Z,4.93
2018-05-03T17:03:09.302Z,5.50
2018-05-03T17:05:36.892Z,5.30
2018-05-03T17:08:04.502Z,5.90
2018-05-03T17:10:32.124Z,5.10
2018-05-03T17:12:59.722Z,5.27
2018-05-03T17:15:27.709Z,5.33
2018-05-03T17:17:55.305Z,5.93
2018-05-03T17:20:23.110Z,5.27
2018-05-03T17:22:50.730Z,5.57
2018-05-03T17:25:18.319Z,5.73
2018-05-03T17:27:45.958Z,6.00
2018-05-03T17:30:13.598Z,6.07
2018-05-03T17:32:41.254Z,7.33
2018-05-03T17:35:08.860Z,7.20
2018-05-03T17:37:36.459Z,7.37
2018-05-03T17:40:04.144Z,7.63
2018-05-03T17:42:31.742Z,7.17
2018-05-03T17:44:59.469Z,6.40
2018-05-03T17:47:27.067Z,7.23
2018-05-03T17:49:55.020Z,6.63
2018-05-03T17:52:22.613Z,6.50
2018-05-03T17:54:51.125Z,6.83
2018-05-03T17:57:18.759Z,6.40
2018-05-03T17:59:46.358Z,6.60
2018-05-03T18:02:13.980Z,6.93
2018-05-03T18:04:41.605Z,6.60
2018-05-03T18:07:09.554Z,7.00
2018-05-03T18:09:37.149Z,7.33
2018-05-03T18:12:04.761Z,7.20
2018-05-03T18:14:32.398Z,6.90
2018-05-03T18:16:59.994Z,6.37
2018-05-03T18:19:27.610Z,6.80
2018-05-03T18:21:55.224Z,6.13
2018-05-03T18:24:22.868Z,7.03
2018-05-03T18:26:50.455Z,6.03
2018-05-03T18:29:18.053Z,7.00
2018-05-03T18:31:45.686Z,5.93
2018-05-03T18:34:13.355Z,6.90
2018-05-03T18:36:41.194Z,6.57
2018-05-03T18:39:08.800Z,7.07
2018-05-03T18:41:36.397Z,6.50
2018-05-03T18:44:04.034Z,6.40
2018-05-03T18:46:31.656Z,6.80
2018-05-03T18:48:59.346Z,6.40
2018-05-03T18:51:27.054Z,6.30
2018-05-03T18:53:54.682Z,7.60
2018-05-03T18:56:22.283Z,7.50
2018-05-03T18:58:49.881Z,6.50
2018-05-03T19:01:17.586Z,7.90
2018-05-03T19:03:45.122Z,7.33
2018-05-03T19:06:12.743Z,7.43
2018-05-03T19:08:40.335Z,7.83
2018-05-03T19:11:08.280Z,7.90
2018-05-03T19:13:35.882Z,6.87
2018-05-03T19:16:03.476Z,7.33
2018-05-03T19:18:31.094Z,7.67
2018-05-03T19:20:58.691Z,7.07
2018-05-03T19:23:26.312Z,8.70
2018-05-03T19:25:53.911Z,7.50
2018-05-03T19:28:21.584Z,8.03
2018-05-03T19:30:49.163Z,8.10
2018-05-03T19:33:16.751Z,7.87
2018-05-03T19:35:44.392Z,8.30
2018-05-03T19:38:12.007Z,7.70
2018-05-03T19:40:39.673Z,7.60
2018-05-03T19:43:07.263Z,7.80
2018-05-03T19:45:35.267Z,8.00
2018-05-03T19:48:02.870Z,8.03
2018-05-03T19:50:30.466Z,8.00
2018-05-03T19:52:58.091Z,7.70
2018-05-03T19:55:25.727Z,7.90
2018-05-03T19:57:53.344Z,7.93
2018-05-03T20:00:20.951Z,7.63
2018-05-03T20:02:48.772Z,7.23
2018-05-03T20:05:16.399Z,8.47
2018-05-03T20:07:43.994Z,8.00
2018-05-03T20:10:11.608Z,6.80
2018-05-03T20:12:39.212Z,7.50
2018-05-03T20:15:06.832Z,7.03
2018-05-03T20:17:34.513Z,7.43
2018-05-03T20:20:02.309Z,7.33
2018-05-03T20:22:29.898Z,7.53
2018-05-03T20:24:57.613Z,8.40
2018-05-03T20:27:25.159Z,8.50
2018-05-03T20:29:52.754Z,7.73
2018-05-03T20:32:20.371Z,7.80
2018-05-03T20:34:47.985Z,7.23
2018-05-03T20:37:15.625Z,7.20
2018-05-03T20:39:43.281Z,8.00
2018-05-03T20:42:11.557Z,7.17
2018-05-03T20:44:39.181Z,7.20
2018-05-03T20:47:06.770Z,8.93
2018-05-03T20:49:34.388Z,7.00
2018-05-03T20:52:02.078Z,10.07
2018-05-03T20:54:29.647Z,7.90
2018-05-03T20:56:57.247Z,8.57
2018-05-03T20:59:24.839Z,7.50
2018-05-03T21:01:52.465Z,7.50
2018-05-03T21:04:20.063Z,8.50
2018-05-03T21:06:47.720Z,7.03
2018-05-03T21:09:15.322Z,7.87
2018-05-03T21:11:43.130Z,8.30
2018-05-03T21:14:10.729Z,6.77
2018-05-03T21:16:38.351Z,8.43
2018-05-03T21:19:05.975Z,8.50
2018-05-03T21:21:33.571Z,7.33
2018-05-03T21:24:01.184Z,8.13
2018-05-03T21:26:28.853Z,8.37
2018-05-03T21:28:56.657Z,8.80
2018-05-03T21:31:24.253Z,8.67
2018-05-03T21:33:51.857Z,7.60
2018-05-03T21:36:19.489Z,8.90
2018-05-03T21:38:47.079Z,7.73
2018-05-03T21:41:14.701Z,8.13
2018-05-03T21:43:42.320Z,8.90
2018-05-03T21:46:09.937Z,7.80
2018-05-03T21:48:37.538Z,8.70
2018-05-03T21:51:05.413Z,8.10
2018-05-03T21:53:33.011Z,8.37
2018-05-03T21:56:00.611Z,8.33
2018-05-03T21:58:28.230Z,8.20
2018-05-03T22:00:55.826Z,8.33
2018-05-03T22:03:23.442Z,8.67
2018-05-03T22:05:51.038Z,7.73
2018-05-03T22:08:18.860Z,8.00
2018-05-03T22:10:46.461Z,8.60
2018-05-03T22:13:14.047Z,9.00
2018-05-03T22:15:41.674Z,8.40
2018-05-03T22:18:09.270Z,9.27
2018-05-03T22:20:36.890Z,8.90
2018-05-03T22:23:04.678Z,8.33
2018-05-03T22:25:32.586Z,7.80
2018-05-03T22:28:00.179Z,8.60
2018-05-03T22:30:27.779Z,8.43
2018-05-03T22:32:55.422Z,7.93
2018-05-03T22:35:23.018Z,8.00
2018-05-03T22:37:50.637Z,8.50
2018-05-03T22:40:18.238Z,8.50
2018-05-03T22:42:46.031Z,8.80
2018-05-03T22:45:13.622Z,8.90
2018-05-03T22:47:41.219Z,7.67
2018-05-03T22:50:08.852Z,8.07
2018-05-03T22:52:36.454Z,7.60
2018-05-03T22:55:04.235Z,8.10
2018-05-03T22:57:31.842Z,8.43
2018-05-03T22:59:59.439Z,7.50
2018-05-03T23:02:27.059Z,8.13
2018-05-03T23:04:54.662Z,7.17
2018-05-03T23:07:22.553Z,7.00
2018-05-03T23:09:50.146Z,7.70
2018-05-03T23:12:17.749Z,8.70
2018-05-03T23:14:45.362Z,7.67
2018-05-03T23:17:12.955Z,7.67
2018-05-03T23:19:40.575Z,7.63
2018-05-03T23:22:08.173Z,8.17
2018-05-03T23:24:35.988Z,7.57
2018-05-03T23:27:03.578Z,8.37
2018-05-03T23:29:31.170Z,8.10
2018-05-03T23:31:58.787Z,8.43
2018-05-03T23:34:26.394Z,8.83
2018-05-03T23:36:54.012Z,8.23
2018-05-03T23:39:21.618Z,8.77
2018-05-03T23:41:49.519Z,10.43
2018-05-03T23:44:17.114Z,7.73
2018-05-03T23:46:44.706Z,8.00
2018-05-03T23:49:12.333Z,8.70
2018-05-03T23:51:39.926Z,7.73
2018-05-03T23:54:07.542Z,8.97
2018-05-03T23:56:35.143Z,7.80
2018-05-03T23:59:02.953Z,8.00
